Time;durP1;ratioP1;P1;durP2;ratioP2;P2;SDS_P1;SDS_P2;PMS_P1;PMS_P2;Temp;Humidity;BMP_temperature;BMP_pressure;BME280_temperature;BME280_humidity;BME280_pressure;Samples;Min_cycle;Max_cycle;Signal;HPM_P1;HPM_P2
2021/05/01 00:01:09;;;;;;;14.57;11.75;;;;;;;10.35;61.40;100578.25;5058146;28;20102;-67
2021/05/01 00:03:34;;;;;;;15.63;12.80;;;;;;;10.96;61.51;100567.06;5057616;28;20032;-67
2021/05/01 00:06:00;;;;;;;14.02;12.65;;;;;;;11.83;58.40;100555.28;5056816;28;20029;-66
2021/05/01 00:08:28;;;;;;;12.25;11.00;;;;;;;11.55;58.87;100558.34;5074586;28;20145;-67
2021/05/01 00:10:57;;;;;;;13.40;12.00;;;;;;;11.40;59.08;100552.41;5074382;28;20036;-67
2021/05/01 00:13:23;;;;;;;13.73;12.32;;;;;;;11.11;61.41;100553.66;5074539;28;20411;-67
2021/05/01 00:15:48;;;;;;;13.45;12.02;;;;;;;11.98;57.97;100545.34;5069203;28;20055;-67
2021/05/01 00:18:13;;;;;;;13.75;12.27;;;;;;;12.04;56.84;100550.53;5072889;28;20506;-67
2021/05/01 00:20:39;;;;;;;13.68;12.27;;;;;;;11.75;58.09;100550.13;5074390;28;20025;-67
2021/05/01 00:23:04;;;;;;;14.35;12.82;;;;;;;11.84;57.91;100549.09;5056484;28;20016;-67
2021/05/01 00:25:29;;;;;;;15.02;13.40;;;;;;;11.79;57.91;100561.50;5073726;28;20089;-66
2021/05/01 00:27:55;;;;;;;14.23;12.75;;;;;;;12.03;57.28;100552.31;5056296;28;20111;-67
2021/05/01 00:30:20;;;;;;;14.50;13.00;;;;;;;11.82;58.09;100553.53;5074150;28;20028;-67
2021/05/01 00:32:45;;;;;;;13.32;11.93;;;;;;;11.93;57.65;100554.22;5072846;28;20093;-67
2021/05/01 00:35:11;;;;;;;13.52;12.23;;;;;;;12.08;57.60;100561.97;5056400;28;20043;-66
2021/05/01 00:37:37;;;;;;;13.93;12.43;;;;;;;12.16;57.03;100550.34;5072672;28;20029;-67
2021/05/01 00:40:05;;;;;;;16.70;14.73;;;;;;;12.16;57.29;100539.78;5073948;28;20044;-67
2021/05/01 00:42:30;;;;;;;15.25;13.70;;;;;;;12.37;56.94;100552.66;5055900;28;20029;-66
2021/05/01 00:44:55;;;;;;;15.57;12.90;;;;;;;12.12;57.60;100546.03;5072521;28;20035;-66
2021/05/01 00:47:21;;;;;;;15.35;13.75;;;;;;;12.24;57.18;100541.41;5073523;28;20023;-66
2021/05/01 00:49:46;;;;;;;14.80;13.20;;;;;;;12.16;57.42;100542.44;5073487;28;20127;-67
2021/05/01 00:52:11;;;;;;;14.38;12.88;;;;;;;11.78;57.63;100531.56;5072119;28;20479;-67
2021/05/01 00:54:37;;;;;;;14.07;12.60;;;;;;;11.87;58.39;100538.47;5073467;28;20029;-67
2021/05/01 00:57:02;;;;;;;15.98;13.60;;;;;;;12.03;57.80;100531.16;5055375;28;20424;-67
2021/05/01 00:59:27;;;;;;;14.48;13.07;;;;;;;11.47;58.70;100532.03;5073774;28;20029;-67
2021/05/01 01:01:54;;;;;;;16.88;13.82;;;;;;;11.95;57.61;100522.50;5073309;28;20380;-67
2021/05/01 01:04:19;;;;;;;15.70;13.88;;;;;;;11.98;57.70;100533.03;5072517;28;20150;-66
2021/05/01 01:06:46;;;;;;;16.67;14.98;;;;;;;11.86;58.24;100542.00;5072558;28;20025;-67
2021/05/01 01:09:11;;;;;;;17.15;13.88;;;;;;;11.52;59.08;100543.44;5073142;28;20035;-66
2021/05/01 01:11:37;;;;;;;14.75;13.25;;;;;;;11.55;59.53;100537.22;5073300;28;20028;-67
2021/05/01 01:14:06;;;;;;;13.98;12.48;;;;;;;11.57;58.39;100543.34;5056587;28;20035;-67
2021/05/01 01:16:32;;;;;;;14.45;12.55;;;;;;;11.42;59.92;100549.75;5072839;28;20024;-67
2021/05/01 01:18:58;;;;;;;15.00;13.40;;;;;;;11.97;58.12;100538.34;5038691;28;20024;-66
2021/05/01 01:21:24;;;;;;;13.93;12.43;;;;;;;12.17;57.67;100540.66;5055249;28;20028;-68
2021/05/01 01:23:50;;;;;;;15.07;13.57;;;;;;;11.65;58.89;100538.84;5066026;28;20503;-67
2021/05/01 01:26:16;;;;;;;15.30;13.80;;;;;;;12.13;57.61;100534.53;5072496;28;20036;-67
2021/05/01 01:28:41;;;;;;;15.00;13.48;;;;;;;11.94;57.89;100534.81;5073084;28;20434;-67
2021/05/01 01:31:06;;;;;;;16.20;13.32;;;;;;;11.44;58.21;100536.50;5055147;28;20450;-67
2021/05/01 01:33:32;;;;;;;16.80;13.68;;;;;;;11.57;58.73;100532.78;5064396;28;20025;-67
2021/05/01 01:35:57;;;;;;;15.13;13.50;;;;;;;11.48;60.34;100535.56;5072674;28;20074;-67
2021/05/01 01:38:22;;;;;;;15.75;14.15;;;;;;;11.55;59.75;100526.66;5072460;28;20361;-66
2021/05/01 01:40:48;;;;;;;16.52;14.82;;;;;;;11.60;59.56;100523.97;5069976;28;20111;-67
2021/05/01 01:43:13;;;;;;;15.68;13.85;;;;;;;11.71;59.28;100523.78;5069810;28;20028;-67
2021/05/01 01:45:38;;;;;;;16.00;12.73;;;;;;;11.84;58.05;100517.38;5072156;28;20017;-66
2021/05/01 01:48:04;;;;;;;16.85;15.05;;;;;;;11.91;58.64;100508.44;5066049;28;20058;-67
2021/05/01 01:50:29;;;;;;;17.17;13.98;;;;;;;12.05;58.02;100510.88;5069653;28;20089;-67
2021/05/01 01:52:55;;;;;;;15.93;13.93;;;;;;;11.89;57.89;100512.03;5072802;28;20066;-66
2021/05/01 01:55:22;;;;;;;15.55;13.65;;;;;;;11.70;58.84;100517.59;5070685;28;20060;-67
2021/05/01 01:57:47;;;;;;;17.38;14.40;;;;;;;11.77;58.18;100510.47;5064798;28;20035;-66
2021/05/01 02:00:15;;;;;;;18.00;15.48;;;;;;;11.90;57.47;100509.34;5069266;28;20054;-67
2021/05/01 02:02:40;;;;;;;15.98;14.27;;;;;;;11.33;59.98;100521.69;5072378;28;20036;-67
2021/05/01 02:05:07;;;;;;;15.52;13.93;;;;;;;11.68;58.72;100512.34;5071087;28;20497;-67
2021/05/01 02:07:32;;;;;;;16.67;14.52;;;;;;;11.77;58.83;100511.31;5066126;28;20020;-67
2021/05/01 02:09:58;;;;;;;16.88;15.05;;;;;;;11.91;58.07;100510.22;5072064;28;20031;-67
2021/05/01 02:12:23;;;;;;;16.30;14.32;;;;;;;11.99;57.51;100512.72;5072381;28;20020;-67
2021/05/01 02:14:48;;;;;;;15.65;13.68;;;;;;;11.48;58.63;100509.16;5070704;28;20024;-67
2021/05/01 02:17:14;;;;;;;15.77;14.27;;;;;;;10.78;61.50;100517.13;5071524;28;20491;-68
2021/05/01 02:19:39;;;;;;;20.00;16.58;;;;;;;10.67;61.99;100518.19;5071643;28;20111;-67
2021/05/01 02:22:04;;;;;;;17.60;15.73;;;;;;;11.15;61.27;100523.72;5048999;28;20020;-67
2021/05/01 02:24:30;;;;;;;17.20;15.27;;;;;;;11.63;59.76;100511.56;5071773;28;20060;-67
2021/05/01 02:26:55;;;;;;;18.92;16.92;;;;;;;11.52;60.03;100513.50;5071153;28;20021;-67
2021/05/01 02:29:21;;;;;;;16.85;14.95;;;;;;;10.81;61.27;100513.63;5072153;28;20024;-67
2021/05/01 02:31:46;;;;;;;19.70;17.33;;;;;;;11.71;59.02;100515.84;5071764;28;20028;-67
2021/05/01 02:34:12;;;;;;;22.70;18.98;;;;;;;11.86;58.97;100514.72;5071370;28;20028;-67
2021/05/01 02:36:37;;;;;;;19.65;17.55;;;;;;;11.19;61.35;100515.75;5069915;28;20126;-67
2021/05/01 02:39:04;;;;;;;17.13;15.43;;;;;;;11.65;59.50;100517.72;5071732;28;20056;-67
2021/05/01 02:41:29;;;;;;;19.10;16.00;;;;;;;10.99;61.06;100504.56;5042562;28;20415;-67
2021/05/01 02:43:55;;;;;;;19.50;16.20;;;;;;;11.39;60.56;100504.88;5035069;28;20043;-67
2021/05/01 02:46:20;;;;;;;18.33;15.45;;;;;;;11.55;59.91;100506.38;5061031;28;20033;-67
2021/05/01 02:48:45;;;;;;;17.80;15.95;;;;;;;11.93;58.29;100509.31;5071455;28;20032;-67
2021/05/01 02:51:11;;;;;;;19.50;15.18;;;;;;;12.27;57.07;100509.63;5053851;28;20033;-67
2021/05/01 02:53:36;;;;;;;16.02;14.25;;;;;;;10.69;61.64;100501.44;5054053;28;20024;-67
2021/05/01 02:56:01;;;;;;;15.45;13.77;;;;;;;10.36;63.78;100501.78;5070843;28;20395;-67
2021/05/01 02:58:27;;;;;;;18.13;15.68;;;;;;;10.05;64.15;100496.84;5070365;28;20104;-67
2021/05/01 03:00:53;;;;;;;18.65;15.23;;;;;;;9.94;65.79;100488.16;5068000;28;20553;-67
2021/05/01 03:03:19;;;;;;;17.25;15.27;;;;;;;9.71;65.89;100497.13;5071703;28;20028;-67
2021/05/01 03:05:44;;;;;;;18.42;15.00;;;;;;;9.80;66.16;100491.78;5069742;28;20418;-67
2021/05/01 03:08:09;;;;;;;16.65;14.63;;;;;;;10.14;63.91;100485.34;5071634;28;20488;-67
2021/05/01 03:10:35;;;;;;;16.67;14.98;;;;;;;10.02;64.64;100491.59;5071179;28;20028;-67
2021/05/01 03:13:00;;;;;;;18.17;15.63;;;;;;;9.97;64.73;100488.13;5071968;28;20024;-67
2021/05/01 03:15:25;;;;;;;20.23;15.13;;;;;;;10.00;64.80;100482.81;5065410;28;20024;-67
2021/05/01 03:17:51;;;;;;;16.95;14.75;;;;;;;10.03;64.25;100488.06;5057994;28;20021;-67
2021/05/01 03:20:17;;;;;;;17.60;15.68;;;;;;;10.10;63.68;100483.59;5068324;28;20113;-67
2021/05/01 03:22:43;;;;;;;16.33;13.60;;;;;;;10.38;63.22;100473.63;5054508;28;20472;-67
2021/05/01 03:25:10;;;;;;;17.30;15.05;;;;;;;10.08;64.52;100485.38;5053532;28;20028;-67
2021/05/01 03:27:36;;;;;;;16.52;14.80;;;;;;;9.81;64.98;100488.28;5071219;28;20070;-67
2021/05/01 03:30:04;;;;;;;15.57;14.07;;;;;;;9.57;65.60;100489.34;5054473;28;20020;-67
2021/05/01 03:32:29;;;;;;;16.02;14.15;;;;;;;10.11;65.20;100490.63;5071086;28;20027;-67
2021/05/01 03:34:55;;;;;;;18.83;15.63;;;;;;;10.90;62.28;100484.47;5057307;28;20123;-67
2021/05/01 03:37:20;;;;;;;16.13;14.23;;;;;;;11.41;60.06;100487.28;5070484;28;20064;-67
2021/05/01 03:39:45;;;;;;;14.60;13.05;;;;;;;11.68;59.30;100488.56;5069859;28;20699;-67
2021/05/01 03:42:11;;;;;;;17.60;15.50;;;;;;;11.77;58.69;100484.91;5056249;28;20376;-67
2021/05/01 03:44:36;;;;;;;16.60;14.30;;;;;;;11.26;59.41;100493.63;5071272;28;20033;-67
2021/05/01 03:47:02;;;;;;;20.13;14.68;;;;;;;11.44;59.57;100497.75;5070861;28;20032;-67
2021/05/01 03:49:27;;;;;;;19.17;16.58;;;;;;;11.94;57.65;100494.34;5061469;28;20422;-67
2021/05/01 03:51:52;;;;;;;16.70;14.90;;;;;;;11.67;58.51;100494.75;5070251;28;20046;-67
2021/05/01 03:54:18;;;;;;;17.60;15.38;;;;;;;11.34;58.89;100497.03;5070024;28;20472;-67
2021/05/01 03:56:43;;;;;;;16.55;14.85;;;;;;;11.14;60.99;100500.00;5070373;28;20485;-67
2021/05/01 03:59:09;;;;;;;16.92;15.10;;;;;;;11.26;60.08;100498.91;5052917;28;20488;-67
2021/05/01 04:01:34;;;;;;;17.95;15.52;;;;;;;11.76;58.52;100504.31;5059702;28;20025;-67
2021/05/01 04:03:59;;;;;;;17.27;15.48;;;;;;;10.95;61.22;100505.50;5065812;28;20024;-67
2021/05/01 04:06:25;;;;;;;20.30;16.42;;;;;;;10.40;63.48;100507.88;5062886;28;20020;-67
2021/05/01 04:08:50;;;;;;;17.90;15.93;;;;;;;10.53;61.74;100506.03;5037737;28;20037;-66
2021/05/01 04:11:15;;;;;;;21.98;17.83;;;;;;;10.06;64.52;100514.38;5062453;28;20025;-67
2021/05/01 04:13:47;;;;;;;22.98;19.25;;;;;;;10.24;64.31;100515.97;5068061;28;20502;-67
2021/05/01 04:16:19;;;;;;;21.25;18.88;;;;;;;10.53;63.04;100519.19;5074104;28;20426;-67
2021/05/01 04:18:46;;;;;;;20.90;17.77;;;;;;;10.67;63.08;100519.03;5072831;28;20032;-66
2021/05/01 04:21:11;;;;;;;22.05;16.02;;;;;;;11.15;61.48;100523.72;5071632;28;20031;-67
2021/05/01 04:23:37;;;;;;;20.75;16.65;;;;;;;11.78;59.06;100521.00;5074118;28;20037;-67
2021/05/01 04:26:03;;;;;;;17.58;15.68;;;;;;;11.95;57.80;100519.84;5062786;28;20039;-67
2021/05/01 04:28:28;;;;;;;19.70;15.65;;;;;;;11.94;58.32;100516.31;5065391;28;20507;-67
2021/05/01 04:30:54;;;;;;;20.35;16.63;;;;;;;11.59;58.60;100506.34;5057528;28;20032;-67
2021/05/01 04:33:19;;;;;;;17.30;15.35;;;;;;;10.61;62.67;100511.22;5071184;28;20039;-67
2021/05/01 04:35:45;;;;;;;18.70;15.68;;;;;;;10.22;64.05;100519.50;5073251;28;20029;-67
2021/05/01 04:38:10;;;;;;;19.52;16.73;;;;;;;10.21;65.18;100523.03;5062288;28;20031;-67
2021/05/01 04:40:35;;;;;;;19.17;16.35;;;;;;;10.42;64.40;100526.31;5071311;28;20028;-67
2021/05/01 04:43:03;;;;;;;19.65;14.95;;;;;;;10.71;62.68;100511.97;5073907;28;20016;-66
2021/05/01 04:45:28;;;;;;;16.98;15.15;;;;;;;11.05;61.31;100522.09;5073294;28;20115;-66
2021/05/01 04:47:54;;;;;;;17.52;15.63;;;;;;;11.09;60.98;100518.53;5072803;28;20819;-67
2021/05/01 04:50:19;;;;;;;17.65;15.18;;;;;;;10.98;60.56;100517.78;5073709;28;20089;-66
2021/05/01 04:52:45;;;;;;;18.02;15.73;;;;;;;11.36;60.65;100513.72;5073742;28;20111;-67
2021/05/01 04:55:14;;;;;;;18.17;15.18;;;;;;;11.83;59.22;100520.91;5072229;28;20025;-67
2021/05/01 04:57:46;;;;;;;18.92;15.65;;;;;;;12.30;57.77;100517.47;5067641;28;20127;-67
2021/05/01 05:00:13;;;;;;;21.35;17.02;;;;;;;12.57;56.73;100515.22;5055242;28;20022;-67
2021/05/01 05:02:39;;;;;;;20.00;16.83;;;;;;;12.35;57.33;100520.06;5069089;28;20083;-67
2021/05/01 05:05:06;;;;;;;18.67;15.85;;;;;;;12.72;56.57;100518.44;5072213;28;20444;-67
2021/05/01 05:07:31;;;;;;;18.42;16.52;;;;;;;11.11;59.07;100521.13;5073055;28;20024;-67
2021/05/01 05:09:57;;;;;;;19.48;17.17;;;;;;;11.96;58.36;100524.22;5073590;28;20479;-67
2021/05/01 05:12:22;;;;;;;18.98;16.20;;;;;;;11.66;58.40;100519.44;5069819;28;20487;-67
2021/05/01 05:14:48;;;;;;;18.63;16.00;;;;;;;12.74;56.21;100519.31;5072753;28;20028;-67
2021/05/01 05:17:13;;;;;;;19.13;15.82;;;;;;;11.21;59.76;100519.25;5070576;28;20039;-67
2021/05/01 05:19:38;;;;;;;17.60;15.75;;;;;;;10.71;62.62;100527.81;5056376;28;20097;-67
2021/05/01 05:22:04;;;;;;;18.48;16.40;;;;;;;11.65;59.45;100522.09;5035502;28;20546;-66
2021/05/01 05:24:29;;;;;;;16.15;14.65;;;;;;;11.86;58.87;100520.88;5055470;28;20104;-67
2021/05/01 05:26:54;;;;;;;17.08;15.25;;;;;;;11.21;62.05;100513.97;5071641;28;20536;-66
2021/05/01 05:29:20;;;;;;;18.90;15.80;;;;;;;12.65;57.02;100515.94;5069978;28;20082;-67
2021/05/01 05:31:45;;;;;;;19.42;15.13;;;;;;;11.93;58.48;100511.94;5072968;28;20033;-67
2021/05/01 05:34:10;;;;;;;19.13;15.77;;;;;;;11.57;60.77;100514.28;5055201;28;20491;-67
2021/05/01 05:36:35;;;;;;;17.27;15.50;;;;;;;12.19;60.05;100508.00;5070300;28;20031;-67
2021/05/01 05:39:02;;;;;;;18.35;16.38;;;;;;;12.92;56.81;100516.28;5065962;28;20395;-67
2021/05/01 05:41:29;;;;;;;18.30;16.02;;;;;;;11.85;60.68;100512.97;5057404;28;20028;-67
2021/05/01 05:43:54;;;;;;;16.55;14.85;;;;;;;10.47;62.96;100520.16;5071763;28;20431;-67
2021/05/01 05:46:19;;;;;;;16.80;14.85;;;;;;;9.94;64.23;100515.34;5062893;28;20042;-68
2021/05/01 05:48:45;;;;;;;16.95;15.20;;;;;;;10.83;64.45;100514.44;5055707;28;20020;-67
2021/05/01 05:51:10;;;;;;;17.33;14.98;;;;;;;11.06;60.71;100523.84;5072467;28;20433;-67
2021/05/01 05:53:35;;;;;;;18.25;15.52;;;;;;;10.57;65.07;100527.97;5058100;28;20121;-67
2021/05/01 05:56:01;;;;;;;21.40;16.33;;;;;;;10.67;63.84;100520.81;5067404;28;20109;-67
2021/05/01 05:58:26;;;;;;;18.98;16.13;;;;;;;10.78;61.71;100526.84;5071082;28;20111;-67
2021/05/01 06:00:51;;;;;;;17.30;15.48;;;;;;;10.45;63.11;100529.84;5068686;28;20035;-67
2021/05/01 06:03:18;;;;;;;16.88;14.45;;;;;;;10.95;62.95;100520.47;5071748;28;20032;-67
2021/05/01 06:05:46;;;;;;;16.98;14.82;;;;;;;10.35;64.93;100521.13;5069441;28;20059;-67
2021/05/01 06:08:11;;;;;;;17.52;14.85;;;;;;;9.79;67.20;100526.91;5064179;28;20024;-66
2021/05/01 06:10:39;;;;;;;17.17;15.40;;;;;;;9.42;65.87;100516.66;5053947;28;20043;-67
2021/05/01 06:13:05;;;;;;;16.35;14.63;;;;;;;10.63;63.40;100518.22;5071310;28;20024;-67
2021/05/01 06:15:31;;;;;;;16.38;14.68;;;;;;;11.53;62.30;100524.03;5048323;28;20036;-67
2021/05/01 06:18:00;;;;;;;17.20;14.95;;;;;;;10.81;62.57;100518.91;5068200;28;20024;-67
2021/05/01 06:20:26;;;;;;;17.75;15.88;;;;;;;10.56;63.30;100535.00;5065996;28;20380;-67
2021/05/01 06:22:52;;;;;;;17.08;15.27;;;;;;;11.07;63.27;100515.00;5057030;28;20020;-67
2021/05/01 06:25:18;;;;;;;15.93;14.20;;;;;;;10.83;62.83;100527.66;5035360;28;20033;-67
2021/05/01 06:27:43;;;;;;;17.13;15.07;;;;;;;9.72;66.51;100520.84;5058784;28;20020;-67
2021/05/01 06:30:11;;;;;;;17.10;15.27;;;;;;;11.89;60.62;100510.25;5059673;28;20031;-67
2021/05/01 06:32:36;;;;;;;15.63;13.55;;;;;;;13.20;55.82;100517.41;5057948;28;20493;-67
2021/05/01 06:35:02;;;;;;;17.73;14.70;;;;;;;13.41;56.41;100517.84;5066747;28;20111;-68
2021/05/01 06:37:29;;;;;;;16.20;14.50;;;;;;;15.91;50.56;100509.94;5057589;28;20020;-68
2021/05/01 06:39:57;;;;;;;16.55;13.98;;;;;;;15.01;51.30;100505.69;5053113;28;20372;-67
2021/05/01 06:42:25;;;;;;;16.52;14.77;;;;;;;17.15;47.86;100508.22;5065668;28;20039;-68
2021/05/01 06:45:01;;;;;;;15.95;14.25;;;;;;;16.90;45.45;100512.66;5054269;28;20025;-68
2021/05/01 06:47:28;;;;;;;15.70;13.93;;;;;;;15.95;48.64;100505.41;5071211;28;20107;-68
2021/05/01 06:50:09;;;;;;;15.75;14.13;;;;;;;17.23;46.71;100521.22;5056140;28;20027;-68
2021/05/01 06:52:38;;;;;;;;;;;;;;;18.52;42.47;100515.00;5046461;28;20027;-68
2021/05/01 06:55:05;;;;;;;15.82;14.13;;;;;;;18.68;41.18;100517.84;5070155;28;19908;-68
2021/05/01 06:57:31;;;;;;;16.02;13.60;;;;;;;22.43;35.71;100505.25;5069739;28;20460;-68
2021/05/01 06:59:58;;;;;;;14.27;12.77;;;;;;;24.35;32.39;100506.28;5064993;28;20027;-68
2021/05/01 07:02:25;;;;;;;14.30;12.77;;;;;;;26.07;29.55;100514.59;5071072;28;20020;-68
2021/05/01 07:04:52;;;;;;;13.43;12.02;;;;;;;26.08;29.40;100527.97;5066340;28;20040;-68
2021/05/01 07:07:20;;;;;;;14.50;13.10;;;;;;;27.54;27.62;100511.94;5069516;28;20033;-68
2021/05/01 07:09:45;;;;;;;13.18;11.88;;;;;;;26.86;27.77;100521.06;5054362;28;20078;-68
2021/05/01 07:12:11;;;;;;;13.07;11.88;;;;;;;24.97;30.25;100521.75;5069934;28;20032;-68
2021/05/01 07:14:37;;;;;;;13.60;12.35;;;;;;;25.07;31.43;100524.69;5065294;28;20398;-68
2021/05/01 07:17:05;;;;;;;13.57;12.18;;;;;;;28.56;26.25;100515.13;5069356;28;20036;-68
2021/05/01 07:19:32;;;;;;;13.82;12.48;;;;;;;27.78;26.86;100522.59;5064482;28;20032;-69
2021/05/01 07:21:57;;;;;;;14.35;12.85;;;;;;;24.23;32.43;100527.84;5054691;28;20469;-69
2021/05/01 07:24:23;;;;;;;11.88;10.80;;;;;;;24.26;30.54;100522.22;5070692;28;20021;-69
2021/05/01 07:26:50;;;;;;;13.02;11.88;;;;;;;24.89;31.70;100518.75;5062772;28;20122;-68
2021/05/01 07:29:15;;;;;;;12.18;10.93;;;;;;;23.84;32.87;100520.50;5062031;28;20064;-69
2021/05/01 07:31:40;;;;;;;13.23;11.90;;;;;;;21.99;35.30;100520.41;5059430;28;20086;-69
2021/05/01 07:34:09;;;;;;;14.50;13.30;;;;;;;21.04;37.25;100522.25;5056125;28;20031;-68
2021/05/01 07:36:45;;;;;;;13.55;12.18;;;;;;;21.95;35.05;100518.88;5054560;28;20027;-69
2021/05/01 07:39:12;;;;;;;12.82;11.65;;;;;;;19.71;37.90;100507.69;5037389;28;20376;-68
2021/05/01 07:41:43;;;;;;;13.38;12.00;;;;;;;23.61;33.16;100503.25;5037829;28;20037;-68
2021/05/01 07:44:08;;;;;;;12.38;11.18;;;;;;;25.04;30.13;100498.75;5050741;28;20077;-69
2021/05/01 07:46:34;;;;;;;11.90;10.80;;;;;;;30.37;24.80;100492.44;5074141;28;20033;-69
2021/05/01 07:49:00;;;;;;;11.93;10.82;;;;;;;31.69;22.29;100494.94;5075388;28;20383;-69
2021/05/01 07:51:26;;;;;;;12.55;11.38;;;;;;;25.54;29.29;100481.59;5074133;28;20024;-69
2021/05/01 07:53:52;;;;;;;11.65;10.55;;;;;;;27.96;25.68;100478.66;5074286;28;20101;-69
2021/05/01 07:56:17;;;;;;;11.88;10.88;;;;;;;27.58;26.70;100478.22;5074962;28;20425;-69
2021/05/01 07:58:42;;;;;;;11.32;10.32;;;;;;;29.15;24.69;100490.03;5073891;28;20021;-70
2021/05/01 08:01:08;;;;;;;10.73;9.70;;;;;;;31.94;20.31;100485.13;5055603;28;20051;-69
2021/05/01 08:03:33;;;;;;;11.15;10.23;;;;;;;32.62;21.31;100474.47;5075023;28;20491;-69
2021/05/01 08:05:58;;;;;;;10.43;9.57;;;;;;;30.84;22.22;100489.66;5069654;28;20056;-69
2021/05/01 08:08:24;;;;;;;10.50;9.50;;;;;;;30.75;21.92;100484.25;5055232;28;20380;-69
2021/05/01 08:10:49;;;;;;;10.73;9.93;;;;;;;26.30;26.56;100483.09;5037275;28;20023;-69
2021/05/01 08:13:15;;;;;;;10.73;9.82;;;;;;;27.95;25.73;100479.66;5055227;28;20040;-69
2021/05/01 08:15:40;;;;;;;10.55;9.65;;;;;;;27.20;25.54;100480.44;5070334;28;20029;-69
2021/05/01 08:18:09;;;;;;;10.35;9.45;;;;;;;28.39;24.27;100470.50;5073627;28;20503;-68
2021/05/01 08:20:34;;;;;;;10.30;9.50;;;;;;;30.83;21.67;100479.78;5074999;28;20202;-68
2021/05/01 08:23:00;;;;;;;10.18;9.27;;;;;;;27.14;26.59;100475.56;5075015;28;20460;-69
2021/05/01 08:25:25;;;;;;;10.68;9.68;;;;;;;31.31;22.58;100487.75;5073250;28;20020;-69
2021/05/01 08:27:51;;;;;;;10.30;9.40;;;;;;;28.15;24.84;100486.06;5073235;28;20043;-68
2021/05/01 08:30:17;;;;;;;9.10;8.40;;;;;;;27.94;25.58;100482.50;5074687;28;20094;-70
2021/05/01 08:32:44;;;;;;;10.10;9.20;;;;;;;33.72;19.87;100488.19;5073333;28;20544;-69
2021/05/01 08:35:09;;;;;;;9.48;8.68;;;;;;;28.34;24.57;100481.75;5056762;28;20133;-70
2021/05/01 08:37:35;;;;;;;9.20;8.48;;;;;;;26.71;25.90;100488.84;5074395;28;20103;-68
2021/05/01 08:40:01;;;;;;;9.82;9.02;;;;;;;24.81;28.12;100478.84;5056684;28;20551;-69
2021/05/01 08:42:27;;;;;;;10.85;9.93;;;;;;;22.81;31.46;100470.69;5040099;28;20403;-70
2021/05/01 08:44:54;;;;;;;10.02;9.13;;;;;;;23.64;29.48;100474.28;5057772;28;20103;-70
2021/05/01 08:47:20;;;;;;;10.52;9.57;;;;;;;21.97;31.79;100470.47;5072826;28;20018;-70
2021/05/01 08:49:45;;;;;;;11.20;10.20;;;;;;;22.21;32.93;100472.59;5074597;28;20099;-70
2021/05/01 08:52:11;;;;;;;11.05;10.02;;;;;;;21.01;34.32;100473.22;5055578;28;20110;-70
2021/05/01 08:54:36;;;;;;;10.13;9.20;;;;;;;21.15;35.16;100480.47;5074271;28;20020;-70
2021/05/01 08:57:02;;;;;;;11.02;9.73;;;;;;;22.04;32.88;100477.19;5073849;28;20033;-69
2021/05/01 08:59:27;;;;;;;13.07;10.95;;;;;;;19.80;36.26;100493.81;5056175;28;20032;-70
2021/05/01 09:01:52;;;;;;;11.27;10.02;;;;;;;18.71;39.13;100483.84;5057015;28;20036;-69
2021/05/01 09:04:18;;;;;;;11.38;10.35;;;;;;;18.21;39.42;100483.41;5055837;28;20476;-70
2021/05/01 09:06:44;;;;;;;11.88;10.68;;;;;;;20.24;35.06;100489.81;5055564;28;20020;-69
2021/05/01 09:09:10;;;;;;;11.32;10.43;;;;;;;19.20;37.03;100486.97;5055808;28;20027;-69
2021/05/01 09:11:42;;;;;;;11.95;10.85;;;;;;;20.16;35.83;100473.28;5055849;28;20511;-69
2021/05/01 09:14:15;;;;;;;11.73;10.55;;;;;;;21.01;33.25;100485.75;5073670;28;20513;-70
2021/05/01 09:16:40;;;;;;;12.15;10.88;;;;;;;19.59;36.25;100479.72;5055701;28;20028;-69
2021/05/01 09:19:06;;;;;;;11.98;10.77;;;;;;;20.52;36.02;100484.81;5056544;28;20044;-69
2021/05/01 09:21:31;;;;;;;12.82;11.40;;;;;;;20.27;35.68;100486.09;5055646;28;20027;-68
2021/05/01 09:23:57;;;;;;;12.73;11.45;;;;;;;19.42;36.43;100475.22;5038804;28;20026;-69
2021/05/01 09:26:35;;;;;;;11.85;10.02;;;;;;;19.47;36.44;100466.03;5055245;28;20100;-69
2021/05/01 09:29:00;;;;;;;12.13;10.93;;;;;;;18.79;37.65;100467.47;5055267;28;20039;-69
2021/05/01 09:31:43;;;;;;;11.57;10.52;;;;;;;18.74;38.43;100465.94;5055379;28;20476;-69
2021/05/01 09:34:09;;;;;;;13.40;11.70;;;;;;;18.53;38.42;100468.66;5072877;28;20392;-69
2021/05/01 09:36:35;;;;;;;12.23;10.95;;;;;;;19.41;36.57;100469.00;5073048;28;20035;-69
2021/05/01 09:39:03;;;;;;;13.25;11.90;;;;;;;18.74;38.00;100469.47;5055126;28;20094;-69
2021/05/01 09:41:35;;;;;;;12.38;11.20;;;;;;;19.63;36.58;100459.91;5072954;28;20028;-69
2021/05/01 09:44:10;;;;;;;;;;;;;;;20.22;35.69;100458.72;5030676;28;20021;-69
2021/05/01 09:46:38;;;;;;;10.88;9.75;;;;;;;19.47;37.06;100462.47;5055778;28;19912;-70
2021/05/01 09:49:10;;;;;;;12.52;11.32;;;;;;;19.18;37.26;100451.44;5060705;28;20016;-68
2021/05/01 09:51:58;;;;;;;10.82;9.70;;;;;;;19.54;35.97;100463.91;5066499;28;20509;-70
2021/05/01 09:54:31;;;;;;;11.32;10.25;;;;;;;19.68;37.20;100470.38;5051947;28;20032;-68
2021/05/01 09:56:59;;;;;;;12.10;10.80;;;;;;;20.53;35.70;100475.81;5069240;28;20105;-70
2021/05/01 09:59:47;;;;;;;12.15;11.00;;;;;;;22.03;34.64;100464.69;5066064;28;20461;-69
2021/05/01 10:02:14;;;;;;;12.27;11.07;;;;;;;24.29;29.94;100451.97;5060341;28;20073;-69
2021/05/01 10:04:41;;;;;;;11.43;10.30;;;;;;;26.41;27.72;100447.09;5071388;28;20043;-69
2021/05/01 10:07:08;;;;;;;11.25;10.23;;;;;;;27.93;24.51;100443.69;5070401;28;20029;-69
2021/05/01 10:09:36;;;;;;;11.35;10.25;;;;;;;28.00;25.60;100444.88;5053835;28;20050;-69
2021/05/01 10:12:13;;;;;;;10.48;9.57;;;;;;;29.05;23.37;100442.00;5055801;28;20020;-69
2021/05/01 10:14:50;;;;;;;10.90;9.75;;;;;;;28.77;24.32;100444.50;5059771;28;20111;-69
2021/05/01 10:17:17;;;;;;;10.18;9.30;;;;;;;25.80;25.92;100434.72;5057497;28;20511;-70
2021/05/01 10:19:45;;;;;;;10.02;9.10;;;;;;;26.49;26.38;100452.75;5058452;28;20025;-70
2021/05/01 10:22:36;;;;;;;10.13;9.18;;;;;;;27.76;25.54;100440.59;5070219;28;20090;-70
2021/05/01 10:25:17;;;;;;;9.90;8.93;;;;;;;27.13;25.17;100452.16;5055280;28;20027;-70
2021/05/01 10:27:46;;;;;;;10.10;9.13;;;;;;;28.05;23.10;100447.19;5069532;28;20056;-70
2021/05/01 10:30:17;;;;;;;9.80;8.98;;;;;;;23.57;28.82;100446.06;5066179;28;20012;-70
2021/05/01 10:32:46;;;;;;;10.43;9.52;;;;;;;19.28;34.49;100438.47;5060426;28;20024;-70
2021/05/01 10:35:11;;;;;;;11.05;10.10;;;;;;;22.92;31.25;100430.53;5069490;28;20081;-69
2021/05/01 10:37:42;;;;;;;9.68;8.77;;;;;;;24.84;27.98;100440.88;5061536;28;20437;-70
2021/05/01 10:40:08;;;;;;;10.52;9.50;;;;;;;24.05;29.05;100434.72;5061824;28;20446;-70
2021/05/01 10:42:33;;;;;;;10.85;9.75;;;;;;;26.05;26.82;100439.06;5067607;28;20041;-70
2021/05/01 10:45:01;;;;;;;9.07;8.27;;;;;;;29.57;23.57;100438.19;5040653;28;20024;-70
2021/05/01 10:47:27;;;;;;;11.05;10.10;;;;;;;29.65;22.62;100417.59;5067078;28;20020;-70
2021/05/01 10:49:55;;;;;;;9.52;8.73;;;;;;;28.92;24.13;100422.44;5055388;28;20027;-68
2021/05/01 10:52:21;;;;;;;9.60;8.00;;;;;;;25.75;26.11;100422.41;5035168;28;20029;-70
2021/05/01 10:55:02;;;;;;;8.80;8.10;;;;;;;30.54;21.36;100412.72;5058115;28;20039;-69
2021/05/01 10:57:29;;;;;;;8.13;7.43;;;;;;;31.65;20.84;100414.53;5065908;28;20024;-69
2021/05/01 11:00:00;;;;;;;8.20;7.50;;;;;;;31.20;21.31;100412.59;5070688;28;20475;-71
2021/05/01 11:02:42;;;;;;;10.50;9.50;;;;;;;26.14;25.27;100418.53;5060069;28;20040;-70
2021/05/01 11:05:12;;;;;;;8.98;8.18;;;;;;;29.17;23.62;100425.59;5050739;28;20388;-70
2021/05/01 11:07:37;;;;;;;9.23;8.43;;;;;;;28.56;22.30;100421.06;5033839;28;20055;-69
2021/05/01 11:10:06;;;;;;;9.70;8.93;;;;;;;24.62;28.02;100418.19;5033386;28;20040;-70